< Cyclone 200815 2008 Season Cyclone 200822 >
Cyclone 200820 (Pancho)
General InformationDetailed Track InformationTrack Information on Google MapsList of All Images || ResourceGoogle EarthGE AnimationAtom FeedGeoJSON
Detalied Best Track Wind (Time Zone = UTC)
Year Month Day Hour Lat. Long. Wind (kt) Gust (kt) Direc. of Major Storm Axis Radius of Major Storm Axis (nm) Radius of Minor Storm Axis (nm) Direc. of Major Gale Axis Radius of Major Gale Axis (nm) Radius of Minor Gale Axis (nm) Image
2008 3 23 06 -11.9 102.0 20 45 symmetric - - symmetric - - Image
2008 3 23 12 -12.1 102.2 20 45 symmetric - - symmetric - - Image
2008 3 23 18 -12.2 102.4 25 45 symmetric - - symmetric - - Image
2008 3 24 00 -12.4 102.6 25 45 symmetric - - symmetric - - Image
2008 3 24 06 -12.6 103.1 25 45 symmetric - - symmetric - - Image
2008 3 24 12 -13.0 103.5 30 45 symmetric - - symmetric - - Image
2008 3 24 18 -13.3 103.9 30 45 symmetric - - symmetric - - Image
2008 3 25 00 -13.6 104.2 35 50 symmetric - - symmetric - - Image
2008 3 25 06 -14.0 104.2 50 70 symmetric - - symmetric - - Image
2008 3 25 12 -14.5 104.1 50 70 symmetric - - symmetric - - Image
2008 3 25 18 -14.8 104.0 50 70 symmetric - - symmetric - - Image
2008 3 26 00 -15.4 104.3 55 80 symmetric - - symmetric - - Image
2008 3 26 06 -16.1 104.7 75 105 symmetric - - symmetric - - Image
2008 3 26 12 -17.1 105.1 90 125 symmetric - - symmetric - - Image
2008 3 26 18 -18.1 105.4 90 125 symmetric - - symmetric - - Image
2008 3 27 00 -19.2 105.8 95 135 symmetric - - symmetric - - Image
2008 3 27 06 -20.5 106.2 90 125 symmetric - - symmetric - - Image
2008 3 27 12 -21.5 106.8 85 120 symmetric - - symmetric - - Image
2008 3 27 18 -22.6 107.4 75 105 symmetric - - symmetric - - Image
2008 3 28 00 -23.5 108.1 60 85 symmetric - - symmetric - - Image
2008 3 28 06 -24.2 108.9 50 70 symmetric - - symmetric - - Image
2008 3 28 12 -24.8 109.3 45 65 symmetric - - symmetric - - Image
2008 3 28 18 -24.9 110.0 40 55 symmetric - - symmetric - - Image
2008 3 29 00 -24.9 110.9 35 50 symmetric - - symmetric - - Image
2008 3 29 06 -25.2 111.3 35 50 symmetric - - symmetric - - Image
2008 3 29 12 -25.4 111.6 30 45 symmetric - - symmetric - - Image
2008 3 29 18 -25.6 111.4 30 45 symmetric - - symmetric - - Image
2008 3 30 00 -26.0 111.3 25 45 symmetric - - symmetric - - Image
2008 3 30 06 -26.1 111.1 25 45 symmetric - - symmetric - - Image
< Cyclone 200815 2008 Season Cyclone 200822 >

Help